createdAt,value
2023-11-12T00:01:42.057Z,100152.59
2023-11-12T00:04:13.133Z,100154.63
2023-11-12T00:06:43.197Z,100150.38
2023-11-12T00:09:13.926Z,100148.88
2023-11-12T00:11:47.803Z,100149.25
2023-11-12T00:14:18.882Z,100151.91
2023-11-12T00:16:48.954Z,100141.19
2023-11-12T00:19:19.805Z,100154.00
2023-11-12T00:21:50.165Z,100153.44
2023-11-12T00:24:20.784Z,100151.78
2023-11-12T00:26:54.058Z,100152.81
2023-11-12T00:29:24.936Z,100150.25
2023-11-12T00:31:56.167Z,100151.31
2023-11-12T00:34:27.407Z,100154.34
2023-11-12T00:36:58.105Z,100147.44
2023-11-12T00:39:28.495Z,100147.56
2023-11-12T00:42:01.908Z,100154.63
2023-11-12T00:44:32.470Z,100148.63
2023-11-12T00:47:02.741Z,100134.28
2023-11-12T00:49:33.221Z,100149.75
2023-11-12T00:52:04.236Z,100145.59
2023-11-12T00:54:35.346Z,100144.88
2023-11-12T00:57:08.803Z,100145.69
2023-11-12T00:59:39.501Z,100136.16
2023-11-12T01:02:11.492Z,100147.69
2023-11-12T01:04:41.823Z,100146.09
2023-11-12T01:07:12.189Z,100138.22
2023-11-12T01:09:42.662Z,100140.13
2023-11-12T01:12:15.796Z,100133.31
2023-11-12T01:14:46.237Z,100133.53
2023-11-12T01:17:16.865Z,100124.94
2023-11-12T01:19:47.603Z,100119.28
2023-11-12T01:22:18.024Z,100130.34
2023-11-12T01:24:48.706Z,100131.34
2023-11-12T01:27:21.932Z,100132.38
2023-11-12T01:29:52.485Z,100126.34
2023-11-12T01:32:23.106Z,100106.75
2023-11-12T01:34:53.458Z,100132.69
2023-11-12T01:37:23.898Z,100131.09
2023-11-12T01:39:54.234Z,100125.97
2023-11-12T01:42:27.390Z,100115.78
2023-11-12T01:44:57.795Z,100106.47
2023-11-12T01:47:29.207Z,100117.69
2023-11-12T01:50:00.047Z,100120.50
2023-11-12T01:52:30.502Z,100109.94
2023-11-12T01:55:01.445Z,100110.06
2023-11-12T01:57:35.264Z,100105.25
2023-11-12T02:00:12.766Z,100111.28
2023-11-12T02:02:43.842Z,100103.84
2023-11-12T02:05:14.393Z,100121.84
2023-11-12T02:07:47.507Z,100117.59
2023-11-12T02:10:18.872Z,100120.44
2023-11-12T02:12:52.119Z,100118.81
2023-11-12T02:15:22.616Z,100119.75
2023-11-12T02:17:54.177Z,100114.47
2023-11-12T02:20:24.548Z,100113.66
2023-11-12T02:22:54.948Z,100121.84
2023-11-12T02:25:28.311Z,100123.72
2023-11-12T02:27:58.620Z,100126.38
2023-11-12T02:30:28.965Z,100117.69
2023-11-12T02:32:59.300Z,100107.13
2023-11-12T02:35:30.977Z,100107.22
2023-11-12T02:38:01.253Z,100111.75
2023-11-12T02:40:34.404Z,100108.19
2023-11-12T02:43:05.139Z,100100.34
2023-11-12T02:45:35.411Z,100100.50
2023-11-12T02:48:06.078Z,100098.84
2023-11-12T02:50:37.611Z,100098.84
2023-11-12T02:53:09.032Z,100095.44
2023-11-12T02:55:42.303Z,100103.38
2023-11-12T02:58:12.869Z,100099.03
2023-11-12T03:00:43.243Z,100098.16
2023-11-12T03:03:14.618Z,100095.53
2023-11-12T03:05:45.406Z,100082.91
2023-11-12T03:08:15.698Z,100092.03
2023-11-12T03:10:48.800Z,100093.56
2023-11-12T03:13:19.153Z,100089.78
2023-11-12T03:15:49.812Z,100092.97
2023-11-12T03:18:20.199Z,100090.44
2023-11-12T03:20:50.626Z,100093.44
2023-11-12T03:23:20.963Z,100085.53
2023-11-12T03:25:54.357Z,100097.88
2023-11-12T03:28:24.738Z,100095.25
2023-11-12T03:30:55.288Z,100098.84
2023-11-12T03:33:25.590Z,100095.25
2023-11-12T03:35:55.905Z,100093.56
2023-11-12T03:38:26.741Z,100093.56
2023-11-12T03:41:00.511Z,100089.22
2023-11-12T03:43:30.765Z,100084.78
2023-11-12T03:46:00.999Z,100087.53
2023-11-12T03:48:31.319Z,100084.03
2023-11-12T03:51:01.601Z,100089.31
2023-11-12T03:53:31.890Z,100081.41
2023-11-12T03:56:05.259Z,100084.03
2023-11-12T03:58:35.815Z,100083.94
2023-11-12T04:01:06.108Z,100085.81
2023-11-12T04:03:36.608Z,100089.31
2023-11-12T04:06:07.678Z,100078.84
2023-11-12T04:08:37.856Z,100086.75
2023-11-12T04:11:11.033Z,100076.19
2023-11-12T04:13:41.329Z,100084.97
2023-11-12T04:16:11.624Z,100075.72
2023-11-12T04:18:41.919Z,100078.94
2023-11-12T04:21:12.264Z,100082.44
2023-11-12T04:23:45.648Z,100080.72
2023-11-12T04:26:19.866Z,100078.56
2023-11-12T04:28:50.203Z,100083.38
2023-11-12T04:31:20.682Z,100081.88
2023-11-12T04:33:51.430Z,100079.88
2023-11-12T04:36:21.681Z,100082.50
2023-11-12T04:38:53.199Z,100077.34
2023-11-12T04:41:26.090Z,100076.41
2023-11-12T04:43:56.611Z,100072.06
2023-11-12T04:46:26.881Z,100071.31
2023-11-12T04:48:57.161Z,100071.31
2023-11-12T04:51:28.275Z,100069.41
2023-11-12T04:53:58.159Z,100065.00
2023-11-12T04:56:31.049Z,100058.84
2023-11-12T04:59:01.271Z,100066.03
2023-11-12T05:01:31.966Z,100059.03
2023-11-12T05:04:02.371Z,100057.25
2023-11-12T05:06:32.655Z,100052.91
2023-11-12T05:09:03.015Z,100059.03
2023-11-12T05:11:35.915Z,100045.84
2023-11-12T05:14:06.112Z,100048.38
2023-11-12T05:16:36.340Z,100050.19
2023-11-12T05:19:08.254Z,100060.75
2023-11-12T05:21:38.580Z,100069.50
2023-11-12T05:24:10.104Z,100060.81
2023-11-12T05:26:43.493Z,100059.97
2023-11-12T05:29:13.919Z,100065.25
2023-11-12T05:31:44.152Z,100054.81
2023-11-12T05:34:14.688Z,100057.34
2023-11-12T05:36:44.981Z,100059.22
2023-11-12T05:39:16.574Z,100040.19
2023-11-12T05:41:49.455Z,100045.25
2023-11-12T05:44:19.697Z,100045.66
2023-11-12T05:46:50.080Z,100043.94
2023-11-12T05:49:20.796Z,100047.44
2023-11-12T05:51:51.133Z,100058.84
2023-11-12T05:54:21.336Z,100043.84
2023-11-12T05:56:54.552Z,100055.25
2023-11-12T05:59:24.742Z,100055.25
2023-11-12T06:01:55.152Z,100048.88
2023-11-12T06:04:25.526Z,100048.56
2023-11-12T06:06:55.943Z,100048.28
2023-11-12T06:09:26.474Z,100048.09
2023-11-12T06:11:59.370Z,100054.97
2023-11-12T06:14:29.555Z,100051.22
2023-11-12T06:17:00.545Z,100056.41
2023-11-12T06:19:31.015Z,100049.34
2023-11-12T06:22:01.705Z,100044.91
2023-11-12T06:24:32.051Z,100042.16
2023-11-12T06:27:05.095Z,100044.72
2023-11-12T06:29:37.210Z,100048.19
2023-11-12T06:32:08.489Z,100042.84
2023-11-12T06:34:38.969Z,100041.13
2023-11-12T06:37:09.284Z,100039.22
2023-11-12T06:39:39.582Z,100038.31
2023-11-12T06:42:12.809Z,100044.34
2023-11-12T06:44:43.732Z,100036.41
2023-11-12T06:47:14.016Z,100041.69
2023-11-12T06:49:44.509Z,100029.34
2023-11-12T06:52:16.116Z,100031.06
2023-11-12T06:54:46.470Z,100024.44
2023-11-12T06:57:19.387Z,100041.69
2023-11-12T06:59:49.681Z,100051.31
2023-11-12T07:02:19.896Z,100042.44
2023-11-12T07:04:50.890Z,100047.72
2023-11-12T07:07:22.424Z,100048.50
2023-11-12T07:09:52.982Z,100042.34
2023-11-12T07:12:25.935Z,100045.84
2023-11-12T07:14:56.203Z,100046.72
2023-11-12T07:17:26.486Z,100044.88
2023-11-12T07:19:57.394Z,100042.25
2023-11-12T07:22:29.755Z,100044.06
2023-11-12T07:25:01.742Z,100045.75
2023-11-12T07:27:35.042Z,100043.09
2023-11-12T07:30:05.840Z,100032.66
2023-11-12T07:32:39.390Z,100037.56
2023-11-12T07:35:10.905Z,100041.13
2023-11-12T07:37:42.480Z,100041.78
2023-11-12T07:40:17.135Z,100045.38
2023-11-12T07:42:50.218Z,100054.44
2023-11-12T07:45:25.341Z,100043.22
2023-11-12T07:47:58.438Z,100045.09
2023-11-12T07:50:29.729Z,100050.44
2023-11-12T07:53:00.091Z,100057.56
2023-11-12T07:55:32.691Z,100038.59
2023-11-12T07:58:05.820Z,100040.38
2023-11-12T08:00:36.145Z,100050.09
2023-11-12T08:03:07.098Z,100043.88
2023-11-12T08:05:37.670Z,100048.31
2023-11-12T08:08:09.432Z,100045.84
2023-11-12T08:10:40.844Z,100045.75
2023-11-12T08:13:17.752Z,100046.41
2023-11-12T08:15:48.163Z,100047.94
2023-11-12T08:18:18.926Z,100058.28
2023-11-12T08:20:49.885Z,100044.50
2023-11-12T08:23:20.606Z,100056.41
2023-11-12T08:25:50.996Z,100038.97
2023-11-12T08:28:25.856Z,100051.69
2023-11-12T08:30:56.764Z,100049.91
2023-11-12T08:33:27.229Z,100061.28
2023-11-12T08:35:58.323Z,100059.63
2023-11-12T08:38:29.040Z,100064.91
2023-11-12T08:40:59.789Z,100064.91
2023-11-12T08:43:32.746Z,100063.75
2023-11-12T08:46:03.669Z,100062.63
2023-11-12T08:48:36.229Z,100070.44
2023-11-12T08:51:06.865Z,100061.59
2023-11-12T08:53:37.369Z,100063.38
2023-11-12T08:56:08.949Z,100063.47
2023-11-12T08:58:42.429Z,100061.97
2023-11-12T09:01:13.740Z,100057.53
2023-11-12T09:03:44.309Z,100059.44
2023-11-12T09:06:15.084Z,100052.06
2023-11-12T09:08:45.495Z,100069.13
2023-11-12T09:11:17.221Z,100066.19
2023-11-12T09:13:50.368Z,100064.13
2023-11-12T09:16:21.155Z,100065.72
2023-11-12T09:18:51.986Z,100062.69
2023-11-12T09:21:22.743Z,100059.97
2023-11-12T09:23:53.196Z,100068.66
2023-11-12T09:26:24.812Z,100063.19
2023-11-12T09:28:58.146Z,100061.28
2023-11-12T09:31:29.721Z,100067.22
2023-11-12T09:34:00.200Z,100065.41
2023-11-12T09:36:31.305Z,100072.28
2023-11-12T09:39:01.649Z,100070.44
2023-11-12T09:41:32.973Z,100065.03
2023-11-12T09:44:07.293Z,100059.38
2023-11-12T09:46:38.400Z,100058.03
2023-11-12T09:49:08.710Z,100058.63
2023-11-12T09:51:40.550Z,100058.41
2023-11-12T09:54:12.722Z,100052.06
2023-11-12T09:56:43.142Z,100046.69
2023-11-12T09:59:16.352Z,100052.72
2023-11-12T10:01:52.047Z,100043.88
2023-11-12T10:04:23.203Z,100048.97
2023-11-12T10:06:54.526Z,100045.34
2023-11-12T10:09:31.393Z,100053.81
2023-11-12T10:12:07.767Z,100038.16
2023-11-12T10:14:42.376Z,100045.53
2023-11-12T10:17:13.166Z,100043.91
2023-11-12T10:19:43.472Z,100034.78
2023-11-12T10:22:13.741Z,100045.09
2023-11-12T10:24:49.944Z,100040.72
2023-11-12T10:27:20.262Z,100045.16
2023-11-12T10:29:53.465Z,100040.53
2023-11-12T10:32:29.779Z,100041.38
2023-11-12T10:35:00.129Z,100042.22
2023-11-12T10:37:30.422Z,100025.91
2023-11-12T10:40:09.968Z,100018.66
2023-11-12T10:42:41.295Z,100028.31
2023-11-12T10:45:17.581Z,100029.72
2023-11-12T10:47:50.831Z,100024.34
2023-11-12T10:50:21.423Z,100008.69
2023-11-12T10:52:52.214Z,100023.91
2023-11-12T10:55:24.652Z,100021.94
2023-11-12T10:57:55.466Z,100019.75
2023-11-12T11:00:30.524Z,100025.38
2023-11-12T11:03:00.884Z,100026.84
2023-11-12T11:05:32.057Z,100019.09
2023-11-12T11:08:02.286Z,100015.31
2023-11-12T11:10:32.663Z,100020.28
2023-11-12T11:13:02.981Z,100010.25
2023-11-12T11:15:54.091Z,100013.53
2023-11-12T11:18:55.170Z,100002.75
2023-11-12T11:21:25.568Z,99998.09
2023-11-12T11:23:57.473Z,99989.31
2023-11-12T11:26:36.151Z,99992.06
2023-11-12T11:29:19.594Z,99987.06
2023-11-12T11:32:19.375Z,99979.78
2023-11-12T11:34:50.114Z,99984.22
2023-11-12T11:37:21.121Z,99970.47
2023-11-12T11:39:51.753Z,99976.41
2023-11-12T11:42:23.639Z,99977.13
2023-11-12T11:44:51.385Z,99973.75
2023-11-12T11:47:27.894Z,99970.25
2023-11-12T11:50:45.633Z,99974.28
2023-11-12T11:53:18.288Z,99974.06
2023-11-12T11:55:56.047Z,99969.84
2023-11-12T11:58:26.999Z,99967.72
2023-11-12T12:01:03.417Z,99969.72
2023-11-12T12:03:37.446Z,99959.66
2023-11-12T12:06:19.008Z,99955.81
2023-11-12T12:08:53.793Z,99953.94
2023-11-12T12:11:26.304Z,99952.19
2023-11-12T12:14:00.491Z,99945.38
2023-11-12T12:16:31.476Z,99944.09
2023-11-12T12:19:05.086Z,99937.88
2023-11-12T12:21:35.955Z,99950.81
2023-11-12T12:24:07.528Z,99946.09
2023-11-12T12:26:38.955Z,99941.44
2023-11-12T12:29:16.198Z,99933.13
2023-11-12T12:31:47.131Z,99928.69
2023-11-12T12:34:20.910Z,99928.47
2023-11-12T12:37:04.620Z,99933.19
2023-11-12T12:39:56.812Z,99927.88
2023-11-12T12:42:29.218Z,99917.28
2023-11-12T12:45:00.641Z,99914.41
2023-11-12T12:47:35.837Z,99907.16
2023-11-12T12:50:27.557Z,99902.50
2023-11-12T12:53:16.989Z,99902.84
2023-11-12T12:55:47.925Z,99900.66
2023-11-12T12:58:18.637Z,99899.41
2023-11-12T13:00:49.417Z,99896.03
2023-11-12T13:03:32.485Z,99899.53
2023-11-12T13:06:09.547Z,99898.34
2023-11-12T13:08:42.367Z,99892.78
2023-11-12T13:11:12.738Z,99888.88
2023-11-12T13:13:43.462Z,99896.25
2023-11-12T13:16:13.899Z,99886.16
2023-11-12T13:18:45.266Z,99878.19
2023-11-12T13:21:20.133Z,99880.59
2023-11-12T13:23:50.774Z,99883.25
2023-11-12T13:26:22.940Z,99889.72
2023-11-12T13:28:55.042Z,99881.41
2023-11-12T13:31:26.629Z,99877.81
2023-11-12T13:33:57.075Z,99874.59
2023-11-12T13:36:30.253Z,99873.97
2023-11-12T13:39:00.477Z,99873.16
2023-11-12T13:41:31.397Z,99870.38
2023-11-12T13:44:01.775Z,99861.34
2023-11-12T13:46:33.309Z,99860.97
2023-11-12T13:49:04.307Z,99857.38
2023-11-12T13:51:37.608Z,99859.09
2023-11-12T13:54:12.020Z,99860.38
2023-11-12T13:56:43.176Z,99856.50
2023-11-12T13:59:13.961Z,99858.41
2023-11-12T14:01:47.030Z,99852.25
2023-11-12T14:04:17.601Z,99859.13
2023-11-12T14:06:52.266Z,99852.75
2023-11-12T14:09:22.848Z,99854.09
2023-11-12T14:11:53.546Z,99845.94
2023-11-12T14:14:23.947Z,99847.63
2023-11-12T14:16:57.051Z,99841.34
2023-11-12T14:19:28.812Z,99850.47
2023-11-12T14:22:01.675Z,99857.66
2023-11-12T14:24:32.349Z,99846.06
2023-11-12T14:27:03.780Z,99849.28
2023-11-12T14:29:34.295Z,99851.44
2023-11-12T14:32:06.043Z,99839.53
2023-11-12T14:34:36.609Z,99836.41
2023-11-12T14:37:10.134Z,99831.09
2023-11-12T14:39:41.571Z,99816.50
2023-11-12T14:42:12.233Z,99826.78
2023-11-12T14:44:42.816Z,99814.34
2023-11-12T14:47:14.661Z,99811.72
2023-11-12T14:49:47.389Z,99802.59
2023-11-12T14:52:20.283Z,99805.22
2023-11-12T14:54:50.810Z,99783.91
2023-11-12T14:57:21.388Z,99795.22
2023-11-12T14:59:51.780Z,99795.50
2023-11-12T15:02:22.251Z,99806.69
2023-11-12T15:04:52.654Z,99801.16
2023-11-12T15:07:25.682Z,99795.25
2023-11-12T15:09:56.266Z,99795.78
2023-11-12T15:12:27.302Z,99792.53
2023-11-12T15:14:57.360Z,99796.78
2023-11-12T15:17:28.869Z,99796.78
2023-11-12T15:20:00.349Z,99793.03
2023-11-12T15:22:33.713Z,99798.09
2023-11-12T15:25:04.456Z,99783.78
2023-11-12T15:27:34.852Z,99774.72
2023-11-12T15:30:05.245Z,99784.00
2023-11-12T15:32:35.729Z,99783.50
2023-11-12T15:35:06.628Z,99757.47
2023-11-12T15:37:41.948Z,99768.31
2023-11-12T15:40:20.063Z,99765.69
2023-11-12T15:42:53.125Z,99768.31
2023-11-12T15:45:25.503Z,99756.88
2023-11-12T15:47:56.729Z,99761.47
2023-11-12T15:50:31.673Z,99755.94
2023-11-12T15:53:04.905Z,99758.59
2023-11-12T15:55:35.554Z,99758.00
2023-11-12T15:58:07.047Z,99765.09
2023-11-12T16:00:38.385Z,99758.00
2023-11-12T16:03:18.180Z,99752.69
2023-11-12T16:05:49.730Z,99749.56
2023-11-12T16:08:25.133Z,99747.72
2023-11-12T16:10:55.540Z,99741.38
2023-11-12T16:13:26.371Z,99732.06
2023-11-12T16:15:56.784Z,99750.75
2023-11-12T16:18:27.569Z,99740.16
2023-11-12T16:20:58.055Z,99735.78
2023-11-12T16:23:31.113Z,99744.59
2023-11-12T16:26:02.673Z,99740.63
2023-11-12T16:28:33.686Z,99731.16
2023-11-12T16:31:07.797Z,99744.41
2023-11-12T16:33:39.593Z,99740.22
2023-11-12T16:36:11.184Z,99738.91
2023-11-12T16:38:44.442Z,99734.34
2023-11-12T16:41:15.359Z,99736.75
2023-11-12T16:43:46.500Z,99735.66
2023-11-12T16:46:17.158Z,99735.44
2023-11-12T16:48:48.125Z,99732.66
2023-11-12T16:51:19.476Z,99727.25
2023-11-12T16:53:52.994Z,99725.22
2023-11-12T16:56:23.835Z,99734.72
2023-11-12T16:58:57.869Z,99730.84
2023-11-12T17:01:29.723Z,99731.47
2023-11-12T17:04:01.186Z,99723.84
2023-11-12T17:06:34.260Z,99714.47
2023-11-12T17:09:10.644Z,99717.00
2023-11-12T17:11:41.078Z,99714.09
2023-11-12T17:14:12.482Z,99711.06
2023-11-12T17:16:47.290Z,99718.72
2023-11-12T17:19:18.612Z,99709.91
2023-11-12T17:21:51.955Z,99712.06
2023-11-12T17:24:25.291Z,99707.84
2023-11-12T17:26:57.019Z,99709.78
2023-11-12T17:29:28.475Z,99709.50
2023-11-12T17:31:59.028Z,99706.75
2023-11-12T17:34:29.730Z,99707.38
2023-11-12T17:37:01.426Z,99704.63
2023-11-12T17:39:34.682Z,99699.19
2023-11-12T17:42:05.482Z,99697.50
2023-11-12T17:44:36.481Z,99695.28
2023-11-12T17:47:07.252Z,99693.13
2023-11-12T17:49:38.009Z,99699.75
2023-11-12T17:52:09.318Z,99690.72
2023-11-12T17:54:43.301Z,99691.94
2023-11-12T17:57:15.808Z,99690.38
2023-11-12T17:59:46.683Z,99688.66
2023-11-12T18:02:17.398Z,99682.75
2023-11-12T18:04:48.093Z,99676.97
2023-11-12T18:07:18.945Z,99674.69
2023-11-12T18:09:52.474Z,99673.00
2023-11-12T18:12:24.482Z,99670.47
2023-11-12T18:14:56.795Z,99662.53
2023-11-12T18:17:27.822Z,99660.00
2023-11-12T18:19:58.921Z,99652.06
2023-11-12T18:22:32.292Z,99640.22
2023-11-12T18:25:06.206Z,99649.28
2023-11-12T18:27:37.555Z,99646.75
2023-11-12T18:30:10.536Z,99650.69
2023-11-12T18:32:41.886Z,99647.47
2023-11-12T18:35:16.107Z,99642.50
2023-11-12T18:37:51.707Z,99641.16
2023-11-12T18:40:25.467Z,99645.03
2023-11-12T18:42:57.926Z,99634.06
2023-11-12T18:45:30.846Z,99639.63
2023-11-12T18:48:03.980Z,99644.22
2023-11-12T18:50:35.657Z,99640.56
2023-11-12T18:53:07.341Z,99639.38
2023-11-12T18:55:42.523Z,99633.44
2023-11-12T18:58:15.521Z,99635.72
2023-11-12T19:00:46.255Z,99633.78
2023-11-12T19:03:16.938Z,99635.31
2023-11-12T19:05:47.916Z,99632.56
2023-11-12T19:08:19.268Z,99646.53
2023-11-12T19:10:52.561Z,99642.09
2023-11-12T19:13:28.407Z,99632.06
2023-11-12T19:16:00.612Z,99636.53
2023-11-12T19:18:32.726Z,99629.88
2023-11-12T19:21:04.821Z,99624.13
2023-11-12T19:23:40.861Z,99629.88
2023-11-12T19:26:14.454Z,99627.09
2023-11-12T19:28:46.881Z,99624.03
2023-11-12T19:31:30.357Z,99628.53
2023-11-12T19:34:06.089Z,99622.13
2023-11-12T19:36:38.406Z,99622.94
2023-11-12T19:39:14.674Z,99609.22
2023-11-12T19:41:49.314Z,99618.50
2023-11-12T19:44:21.791Z,99597.78
2023-11-12T19:46:53.546Z,99613.19
2023-11-12T19:49:25.903Z,99610.28
2023-11-12T19:52:01.878Z,99606.53
2023-11-12T19:54:36.440Z,99604.56
2023-11-12T19:57:13.180Z,99597.47
2023-11-12T19:59:49.603Z,99597.47
2023-11-12T20:02:24.422Z,99600.13
2023-11-12T20:04:59.087Z,99595.66
2023-11-12T20:07:32.113Z,99584.44
2023-11-12T20:10:06.618Z,99585.63
2023-11-12T20:12:45.614Z,99580.31
2023-11-12T20:15:20.230Z,99581.72
2023-11-12T20:17:54.116Z,99568.09
2023-11-12T20:20:28.628Z,99574.22
2023-11-12T20:23:24.246Z,99578.56
2023-11-12T20:25:56.683Z,99573.31
2023-11-12T20:28:36.802Z,99567.50
2023-11-12T20:31:14.254Z,99562.91
2023-11-12T20:33:50.083Z,99551.22
2023-11-12T20:36:22.154Z,99555.19
2023-11-12T20:38:54.511Z,99543.72
2023-11-12T20:41:28.202Z,99556.88
2023-11-12T20:44:04.477Z,99540.94
2023-11-12T20:46:38.242Z,99540.09
2023-11-12T20:49:14.731Z,99542.75
2023-11-12T20:51:49.586Z,99530.59
2023-11-12T20:54:23.693Z,99527.94
2023-11-12T20:56:55.421Z,99528.88
2023-11-12T20:59:29.926Z,99523.00
2023-11-12T21:02:10.040Z,99504.09
2023-11-12T21:04:55.608Z,99520.38
2023-11-12T21:07:27.338Z,99514.47
2023-11-12T21:10:02.573Z,99519.78
2023-11-12T21:12:34.321Z,99512.06
2023-11-12T21:15:11.263Z,99506.75
2023-11-12T21:17:47.199Z,99506.16
2023-11-12T21:20:20.740Z,99484.03
2023-11-12T21:22:52.529Z,99489.94
2023-11-12T21:25:26.872Z,99477.63
2023-11-12T21:27:59.817Z,99484.81
2023-11-12T21:30:35.571Z,99474.72
2023-11-12T21:33:07.386Z,99479.63
2023-11-12T21:35:43.998Z,99477.09
2023-11-12T21:38:18.068Z,99475.41
2023-11-12T21:40:50.208Z,99473.06
2023-11-12T21:43:24.689Z,99471.50
2023-11-12T21:46:00.639Z,99473.41
2023-11-12T21:48:32.634Z,99452.97
2023-11-12T21:51:04.636Z,99465.66
2023-11-12T21:53:39.499Z,99473.66
2023-11-12T21:56:16.190Z,99466.50
2023-11-12T21:58:48.078Z,99458.59
2023-11-12T22:01:23.705Z,99465.63
2023-11-12T22:04:02.890Z,99462.78
2023-11-12T22:06:35.276Z,99470.75
2023-11-12T22:09:17.401Z,99469.22
2023-11-12T22:11:55.017Z,99467.28
2023-11-12T22:14:27.828Z,99457.78
2023-11-12T22:17:05.639Z,99459.25
2023-11-12T22:19:39.998Z,99459.25
2023-11-12T22:22:12.591Z,99468.41
2023-11-12T22:24:45.234Z,99473.22
2023-11-12T22:27:17.220Z,99469.38
2023-11-12T22:29:49.332Z,99468.28
2023-11-12T22:32:23.759Z,99466.13
2023-11-12T22:34:58.374Z,99451.66
2023-11-12T22:37:32.191Z,99456.00
2023-11-12T22:40:05.085Z,99462.38
2023-11-12T22:42:37.967Z,99449.63
2023-11-12T22:45:13.088Z,99438.56
2023-11-12T22:47:48.662Z,99439.03
2023-11-12T22:50:24.761Z,99429.53
2023-11-12T22:52:55.782Z,99428.94
2023-11-12T22:55:28.817Z,99421.25
2023-11-12T22:58:02.340Z,99415.47
2023-11-12T23:00:47.432Z,99409.31
2023-11-12T23:03:22.831Z,99413.75
2023-11-12T23:05:54.413Z,99416.63
2023-11-12T23:08:25.809Z,99414.69
2023-11-12T23:10:59.436Z,99406.53
2023-11-12T23:13:30.895Z,99412.78
2023-11-12T23:16:02.887Z,99411.31
2023-11-12T23:18:36.733Z,99412.53
2023-11-12T23:21:09.843Z,99415.41
2023-11-12T23:23:41.157Z,99413.00
2023-11-12T23:26:11.681Z,99413.00
2023-11-12T23:28:42.496Z,99402.66
2023-11-12T23:31:13.954Z,99417.06
2023-11-12T23:33:47.656Z,99400.81
2023-11-12T23:36:18.398Z,99404.81
2023-11-12T23:38:49.213Z,99412.63
2023-11-12T23:41:19.814Z,99406.00
2023-11-12T23:43:50.454Z,99411.63
2023-11-12T23:46:21.165Z,99407.41
2023-11-12T23:48:54.504Z,99399.00
2023-11-12T23:51:25.235Z,99402.59
2023-11-12T23:53:56.006Z,99401.13
2023-11-12T23:56:27.348Z,99398.50
2023-11-12T23:58:58.770Z,99401.28
